createdAt,value
2022-11-25T00:01:32.936Z,5.17
2022-11-25T00:04:01.552Z,5.31
2022-11-25T00:06:34.527Z,5.25
2022-11-25T00:09:11.928Z,5.53
2022-11-25T00:11:41.603Z,5.21
2022-11-25T00:14:15.084Z,5.45
2022-11-25T00:16:48.120Z,5.56
2022-11-25T00:19:17.451Z,5.16
2022-11-25T00:21:45.674Z,5.24
2022-11-25T00:24:15.723Z,5.29
2022-11-25T00:26:44.004Z,5.48
2022-11-25T00:29:13.232Z,5.34
2022-11-25T00:31:41.794Z,5.02
2022-11-25T00:34:13.520Z,5.27
2022-11-25T00:36:41.481Z,5.34
2022-11-25T00:39:17.745Z,4.90
2022-11-25T00:42:04.976Z,4.86
2022-11-25T00:44:36.253Z,5.13
2022-11-25T00:47:18.781Z,5.27
2022-11-25T00:49:51.942Z,4.96
2022-11-25T00:52:24.435Z,5.00
2022-11-25T00:54:53.060Z,4.89
2022-11-25T00:57:23.024Z,5.03
2022-11-25T00:59:50.963Z,5.31
2022-11-25T01:02:22.614Z,4.99
2022-11-25T01:04:50.462Z,4.70
2022-11-25T01:07:18.626Z,4.64
2022-11-25T01:09:48.173Z,5.18
2022-11-25T01:12:16.044Z,5.12
2022-11-25T01:14:43.904Z,4.85
2022-11-25T01:17:14.861Z,5.00
2022-11-25T01:19:42.663Z,5.20
2022-11-25T01:22:10.582Z,4.92
2022-11-25T01:24:39.051Z,5.22
2022-11-25T01:27:07.045Z,5.14
2022-11-25T01:29:34.849Z,4.85
2022-11-25T01:32:03.033Z,5.11
2022-11-25T01:34:32.828Z,4.72
2022-11-25T01:37:00.744Z,4.79
2022-11-25T01:39:32.923Z,4.92
2022-11-25T01:42:01.937Z,4.86
2022-11-25T01:44:32.423Z,4.78
2022-11-25T01:47:09.182Z,4.66
2022-11-25T01:50:05.644Z,4.36
2022-11-25T01:52:37.064Z,4.55
2022-11-25T01:55:12.272Z,4.46
2022-11-25T01:57:44.824Z,4.53
2022-11-25T02:00:13.753Z,4.31
2022-11-25T02:02:45.798Z,4.24
2022-11-25T02:05:17.031Z,4.66
2022-11-25T02:07:47.444Z,4.34
2022-11-25T02:10:23.073Z,4.33
2022-11-25T02:12:51.862Z,4.09
2022-11-25T02:15:21.093Z,4.54
2022-11-25T02:17:49.440Z,4.12
2022-11-25T02:20:22.132Z,4.04
2022-11-25T02:23:33.532Z,4.34
2022-11-25T02:26:02.242Z,4.25
2022-11-25T02:28:31.626Z,4.65
2022-11-25T02:30:59.792Z,4.13
2022-11-25T02:33:28.274Z,4.56
2022-11-25T02:35:59.393Z,4.35
2022-11-25T02:38:43.933Z,4.47
2022-11-25T02:41:18.151Z,4.29
2022-11-25T02:43:47.472Z,4.36
2022-11-25T02:46:21.873Z,4.32
2022-11-25T02:49:09.420Z,4.47
2022-11-25T02:51:40.150Z,4.61
2022-11-25T02:54:09.675Z,4.60
2022-11-25T02:56:37.866Z,4.42
2022-11-25T02:59:05.791Z,4.36
2022-11-25T03:01:35.579Z,4.70
2022-11-25T03:04:06.359Z,4.35
2022-11-25T03:06:34.918Z,4.55
2022-11-25T03:09:03.388Z,4.86
2022-11-25T03:11:54.575Z,4.63
2022-11-25T03:14:22.802Z,4.85
2022-11-25T03:16:51.150Z,4.43
2022-11-25T03:19:19.033Z,4.71
2022-11-25T03:21:47.183Z,4.89
2022-11-25T03:24:15.025Z,4.51
2022-11-25T03:26:42.820Z,4.64
2022-11-25T03:29:11.172Z,4.68
2022-11-25T03:31:38.937Z,4.82
2022-11-25T03:34:09.432Z,4.59
2022-11-25T03:36:37.760Z,4.70
2022-11-25T03:39:06.404Z,4.79
2022-11-25T03:41:34.942Z,4.87
2022-11-25T03:44:03.284Z,4.59
2022-11-25T03:46:31.224Z,4.68
2022-11-25T03:48:59.771Z,4.92
2022-11-25T03:51:28.913Z,4.91
2022-11-25T03:53:57.063Z,4.74
2022-11-25T03:56:25.323Z,4.72
2022-11-25T03:58:53.713Z,4.86
2022-11-25T04:01:22.575Z,5.00
2022-11-25T04:03:51.525Z,4.87
2022-11-25T04:06:21.794Z,4.86
2022-11-25T04:08:50.505Z,4.73
2022-11-25T04:11:18.913Z,4.78
2022-11-25T04:13:48.512Z,4.63
2022-11-25T04:16:26.686Z,4.45
2022-11-25T04:18:54.994Z,4.61
2022-11-25T04:21:22.815Z,4.39
2022-11-25T04:23:50.733Z,4.72
2022-11-25T04:26:19.022Z,4.79
2022-11-25T04:28:46.983Z,5.03
2022-11-25T04:31:15.028Z,4.66
2022-11-25T04:33:45.952Z,4.56
2022-11-25T04:36:16.343Z,3.92
2022-11-25T04:38:44.802Z,4.12
2022-11-25T04:41:12.953Z,4.02
2022-11-25T04:43:40.954Z,4.61
2022-11-25T04:46:15.518Z,4.51
2022-11-25T04:48:44.323Z,3.95
2022-11-25T04:51:12.469Z,3.29
2022-11-25T04:53:40.395Z,3.72
2022-11-25T04:56:09.984Z,3.64
2022-11-25T04:58:57.902Z,4.00
2022-11-25T05:01:26.009Z,3.33
2022-11-25T05:03:57.636Z,3.17
2022-11-25T05:06:26.404Z,3.30
2022-11-25T05:08:55.145Z,3.27
2022-11-25T05:11:23.873Z,3.08
2022-11-25T05:13:52.143Z,3.81
2022-11-25T05:16:20.730Z,3.33
2022-11-25T05:18:48.802Z,3.15
2022-11-25T05:21:17.682Z,3.12
2022-11-25T05:23:45.994Z,3.09
2022-11-25T05:26:14.633Z,2.98
2022-11-25T05:28:42.825Z,2.96
2022-11-25T05:31:11.453Z,2.85
2022-11-25T05:33:39.392Z,3.40
2022-11-25T05:36:07.693Z,3.37
2022-11-25T05:38:36.223Z,2.57
2022-11-25T05:41:06.722Z,2.97
2022-11-25T05:43:35.616Z,2.61
2022-11-25T05:46:08.059Z,3.36
2022-11-25T05:48:36.220Z,2.37
2022-11-25T05:51:05.334Z,1.88
2022-11-25T05:53:33.695Z,2.28
2022-11-25T05:56:05.192Z,2.25
2022-11-25T05:58:34.233Z,2.45
2022-11-25T06:01:07.163Z,2.85
2022-11-25T06:03:37.513Z,2.32
2022-11-25T06:06:06.633Z,2.09
2022-11-25T06:08:35.592Z,2.08
2022-11-25T06:11:12.146Z,2.22
2022-11-25T06:13:40.865Z,2.64
2022-11-25T06:16:14.210Z,2.50
2022-11-25T06:18:42.442Z,2.28
2022-11-25T06:21:13.664Z,2.37
2022-11-25T06:23:41.638Z,2.75
2022-11-25T06:26:20.474Z,2.32
2022-11-25T06:28:48.972Z,2.19
2022-11-25T06:31:19.744Z,2.24
2022-11-25T06:33:50.963Z,2.46
2022-11-25T06:36:20.411Z,2.76
2022-11-25T06:38:51.290Z,2.44
2022-11-25T06:41:19.634Z,2.63
2022-11-25T06:43:47.501Z,2.82
2022-11-25T06:46:23.062Z,3.26
2022-11-25T06:48:55.654Z,3.95
2022-11-25T06:51:24.747Z,4.95
2022-11-25T06:53:53.135Z,5.95
2022-11-25T06:56:26.402Z,7.24
2022-11-25T06:58:55.357Z,7.37
2022-11-25T07:01:25.790Z,7.76
2022-11-25T07:03:56.279Z,8.54
2022-11-25T07:06:24.793Z,7.39
2022-11-25T07:08:52.984Z,7.35
2022-11-25T07:11:20.881Z,7.67
2022-11-25T07:13:52.503Z,8.34
2022-11-25T07:16:20.496Z,8.42
2022-11-25T07:18:48.522Z,7.67
2022-11-25T07:21:19.344Z,7.54
2022-11-25T07:23:47.746Z,7.07
2022-11-25T07:26:27.112Z,6.97
2022-11-25T07:28:58.547Z,6.15
2022-11-25T07:31:35.153Z,6.23
2022-11-25T07:34:06.593Z,6.37
2022-11-25T07:36:35.256Z,7.10
2022-11-25T07:39:06.605Z,7.61
2022-11-25T07:41:34.673Z,6.35
2022-11-25T07:44:05.161Z,7.79
2022-11-25T07:46:38.657Z,7.66
2022-11-25T07:49:09.351Z,7.46
2022-11-25T07:51:50.633Z,7.17
2022-11-25T07:54:18.552Z,7.65
2022-11-25T07:56:48.643Z,7.75
2022-11-25T07:59:18.903Z,7.86
2022-11-25T08:01:49.997Z,8.30
2022-11-25T08:04:20.759Z,7.16
2022-11-25T08:06:51.621Z,7.44
2022-11-25T08:09:23.153Z,7.63
2022-11-25T08:11:51.724Z,7.27
2022-11-25T08:14:20.232Z,6.99
2022-11-25T08:16:48.263Z,7.03
2022-11-25T08:19:17.639Z,7.35
2022-11-25T08:21:48.306Z,7.19
2022-11-25T08:24:21.050Z,7.83
2022-11-25T08:26:50.023Z,7.53
2022-11-25T08:29:19.344Z,7.98
2022-11-25T08:31:47.583Z,7.79
2022-11-25T08:34:25.523Z,7.97
2022-11-25T08:36:54.234Z,8.55
2022-11-25T08:39:50.373Z,9.45
2022-11-25T08:42:11.348Z,10.13
2022-11-25T08:44:39.573Z,11.64
2022-11-25T08:47:07.413Z,12.47
2022-11-25T08:49:40.811Z,12.93
2022-11-25T08:52:10.670Z,13.31
2022-11-25T08:54:38.632Z,13.50
2022-11-25T08:57:06.490Z,12.23
2022-11-25T08:59:35.499Z,11.99
2022-11-25T09:02:04.309Z,13.09
2022-11-25T09:04:32.391Z,12.27
2022-11-25T09:07:01.191Z,12.32
2022-11-25T09:09:29.199Z,13.17
2022-11-25T09:11:57.092Z,13.53
2022-11-25T09:14:25.529Z,12.58
2022-11-25T09:16:53.824Z,12.55
2022-11-25T09:19:21.704Z,11.88
2022-11-25T09:21:50.015Z,12.32
2022-11-25T09:24:18.091Z,12.29
2022-11-25T09:26:46.511Z,13.60
2022-11-25T09:29:14.817Z,13.82
2022-11-25T09:31:43.002Z,14.11
2022-11-25T09:34:11.191Z,14.35
2022-11-25T09:36:39.462Z,14.69
2022-11-25T09:39:08.050Z,14.95
2022-11-25T09:42:16.321Z,15.74
2022-11-25T09:45:31.702Z,15.87
2022-11-25T09:48:11.653Z,16.26
2022-11-25T09:50:44.573Z,16.79
2022-11-25T09:53:42.213Z,17.83
2022-11-25T09:56:56.691Z,18.56
2022-11-25T09:59:38.455Z,18.60
2022-11-25T10:02:40.733Z,20.10
2022-11-25T10:05:22.149Z,20.39
2022-11-25T10:08:00.340Z,19.82
2022-11-25T10:10:33.498Z,19.72
2022-11-25T10:13:01.750Z,19.54
2022-11-25T10:15:33.804Z,20.07
2022-11-25T10:18:07.290Z,21.20
2022-11-25T10:20:40.480Z,19.47
2022-11-25T10:23:32.563Z,21.19
2022-11-25T10:26:13.278Z,21.44
2022-11-25T10:28:48.250Z,21.12
2022-11-25T10:31:27.464Z,20.82
2022-11-25T10:34:00.022Z,19.76
2022-11-25T10:36:34.129Z,21.18
2022-11-25T10:39:11.439Z,20.24
2022-11-25T10:41:56.035Z,20.73
2022-11-25T10:44:30.393Z,21.40
2022-11-25T10:47:13.840Z,21.38
2022-11-25T10:50:14.603Z,21.75
2022-11-25T10:53:07.521Z,21.47
2022-11-25T10:55:36.250Z,21.51
2022-11-25T10:58:42.801Z,20.22
2022-11-25T11:01:21.532Z,21.21
2022-11-25T11:04:04.663Z,21.86
2022-11-25T11:06:38.480Z,20.44
2022-11-25T11:09:07.050Z,18.21
2022-11-25T11:11:47.441Z,19.79
2022-11-25T11:14:20.170Z,19.32
2022-11-25T11:16:56.209Z,18.17
2022-11-25T11:19:27.273Z,15.86
2022-11-25T11:21:56.628Z,16.07
2022-11-25T11:24:32.420Z,15.69
2022-11-25T11:27:18.780Z,15.94
2022-11-25T11:29:47.171Z,15.52
2022-11-25T11:32:24.296Z,16.71
2022-11-25T11:35:08.001Z,17.06
2022-11-25T11:37:44.549Z,16.09
2022-11-25T11:40:39.770Z,16.15
2022-11-25T11:43:13.711Z,13.73
2022-11-25T11:45:57.161Z,13.78
2022-11-25T11:49:02.971Z,13.56
2022-11-25T11:51:56.830Z,12.95
2022-11-25T11:54:37.825Z,13.54
2022-11-25T11:57:18.340Z,13.84
2022-11-25T11:59:54.866Z,13.93
2022-11-25T12:02:36.181Z,13.86
2022-11-25T12:05:10.847Z,15.10
2022-11-25T12:07:41.699Z,14.72
2022-11-25T12:10:22.941Z,15.30
2022-11-25T12:13:13.761Z,14.59
2022-11-25T12:15:53.298Z,15.53
2022-11-25T12:18:39.481Z,15.08
2022-11-25T12:21:42.088Z,15.76
2022-11-25T12:24:23.752Z,14.91
2022-11-25T12:26:57.834Z,14.92
2022-11-25T12:29:47.347Z,13.11
2022-11-25T12:32:37.300Z,13.13
2022-11-25T12:35:21.089Z,12.54
2022-11-25T12:38:09.672Z,12.54
2022-11-25T12:40:58.935Z,12.24
2022-11-25T12:43:53.771Z,11.65
2022-11-25T12:47:09.232Z,12.67
2022-11-25T12:49:45.301Z,12.29
2022-11-25T12:52:30.830Z,12.70
2022-11-25T12:55:25.874Z,12.37
2022-11-25T12:58:10.629Z,12.59
2022-11-25T13:00:57.563Z,12.50
2022-11-25T13:03:41.302Z,12.12
2022-11-25T13:06:32.300Z,12.86
2022-11-25T13:09:27.703Z,12.24
2022-11-25T13:12:18.001Z,12.44
2022-11-25T13:14:55.311Z,12.68
2022-11-25T13:17:24.796Z,12.36
2022-11-25T13:20:45.641Z,12.98
2022-11-25T13:23:22.871Z,12.69
2022-11-25T13:25:52.445Z,12.24
2022-11-25T13:28:39.042Z,12.04
2022-11-25T13:31:31.590Z,11.93
2022-11-25T13:34:09.132Z,11.76
2022-11-25T13:36:49.911Z,11.30
2022-11-25T13:39:38.683Z,11.14
2022-11-25T13:42:25.843Z,11.81
2022-11-25T13:44:56.292Z,12.07
2022-11-25T13:47:43.061Z,12.56
2022-11-25T13:50:21.887Z,11.79
2022-11-25T13:53:00.462Z,11.87
2022-11-25T13:55:38.009Z,11.57
2022-11-25T13:58:41.441Z,11.50
2022-11-25T14:01:29.792Z,11.76
2022-11-25T14:04:00.486Z,11.40
2022-11-25T14:06:57.641Z,11.35
2022-11-25T14:09:50.381Z,10.90
2022-11-25T14:12:33.444Z,10.62
2022-11-25T14:15:17.930Z,10.62
2022-11-25T14:18:02.960Z,9.56
2022-11-25T14:20:36.880Z,10.21
2022-11-25T14:23:22.616Z,9.55
2022-11-25T14:25:53.958Z,9.33
2022-11-25T14:28:21.999Z,9.30
2022-11-25T14:30:55.345Z,9.58
2022-11-25T14:34:00.693Z,9.43
2022-11-25T14:36:34.512Z,9.86
2022-11-25T14:39:06.513Z,9.50
2022-11-25T14:41:42.022Z,9.18
2022-11-25T14:44:15.731Z,9.16
2022-11-25T14:46:54.750Z,8.87
2022-11-25T14:52:17.081Z,8.10
2022-11-25T14:54:46.001Z,8.94
2022-11-25T14:57:13.885Z,8.33
2022-11-25T14:59:45.384Z,7.84
2022-11-25T15:02:31.987Z,7.21
2022-11-25T15:05:15.280Z,7.14
2022-11-25T15:08:08.989Z,7.96
2022-11-25T15:10:52.788Z,7.46
2022-11-25T15:13:32.732Z,7.23
2022-11-25T15:16:15.340Z,6.24
2022-11-25T15:18:55.702Z,6.54
2022-11-25T15:22:14.969Z,6.17
2022-11-25T15:24:48.876Z,6.86
2022-11-25T15:27:25.507Z,7.17
2022-11-25T15:29:55.643Z,7.04
2022-11-25T15:32:26.493Z,6.64
2022-11-25T15:34:56.721Z,6.21
2022-11-25T15:37:24.782Z,6.08
2022-11-25T15:40:31.664Z,5.99
2022-11-25T15:43:01.362Z,5.89
2022-11-25T15:46:06.318Z,5.70
2022-11-25T15:48:45.426Z,5.75
2022-11-25T15:51:20.981Z,5.77
2022-11-25T15:54:17.922Z,5.59
2022-11-25T15:56:51.392Z,5.41
2022-11-25T16:00:01.731Z,4.50
2022-11-25T16:02:41.939Z,3.73
2022-11-25T16:05:13.381Z,4.19
2022-11-25T16:07:50.723Z,4.55
2022-11-25T16:10:20.901Z,5.13
2022-11-25T16:13:22.209Z,5.53
2022-11-25T16:16:08.771Z,5.18
2022-11-25T16:18:42.102Z,4.33
2022-11-25T16:21:14.005Z,4.64
2022-11-25T16:23:48.912Z,4.35
2022-11-25T16:26:25.500Z,3.20
2022-11-25T16:28:56.155Z,3.14
2022-11-25T16:31:28.832Z,2.69
2022-11-25T16:34:01.094Z,3.85
2022-11-25T16:36:29.310Z,3.46
2022-11-25T16:38:57.392Z,3.63
2022-11-25T16:41:26.080Z,3.29
2022-11-25T16:43:58.445Z,3.74
2022-11-25T16:46:28.449Z,3.20
2022-11-25T16:48:56.923Z,3.84
2022-11-25T16:51:26.092Z,3.74
2022-11-25T16:53:54.271Z,3.04
2022-11-25T16:56:27.481Z,3.67
2022-11-25T16:58:55.823Z,3.23
2022-11-25T17:01:26.737Z,3.31
2022-11-25T17:03:54.791Z,3.52
2022-11-25T17:06:25.271Z,4.12
2022-11-25T17:08:53.642Z,3.19
2022-11-25T17:11:26.862Z,2.97
2022-11-25T17:13:55.733Z,3.38
2022-11-25T17:16:26.150Z,3.92
2022-11-25T17:18:56.154Z,4.10
2022-11-25T17:21:29.841Z,3.19
2022-11-25T17:24:01.114Z,3.73
2022-11-25T17:26:40.115Z,3.75
2022-11-25T17:29:12.102Z,3.46
2022-11-25T17:31:40.784Z,3.06
2022-11-25T17:34:13.780Z,3.12
2022-11-25T17:36:43.685Z,3.89
2022-11-25T17:39:13.195Z,3.33
2022-11-25T17:41:46.690Z,3.58
2022-11-25T17:44:26.230Z,3.41
2022-11-25T17:46:57.746Z,2.89
2022-11-25T17:49:25.942Z,2.82
2022-11-25T17:51:54.172Z,2.88
2022-11-25T17:54:22.130Z,2.79
2022-11-25T17:56:52.580Z,3.16
2022-11-25T17:59:26.133Z,2.71
2022-11-25T18:01:56.227Z,2.71
2022-11-25T18:04:27.904Z,3.15
2022-11-25T18:06:55.752Z,2.39
2022-11-25T18:09:23.732Z,2.60
2022-11-25T18:11:57.684Z,2.47
2022-11-25T18:14:34.250Z,2.58
2022-11-25T18:17:06.767Z,2.89
2022-11-25T18:19:35.290Z,2.81
2022-11-25T18:22:13.142Z,2.09
2022-11-25T18:24:41.415Z,2.27
2022-11-25T18:27:36.120Z,2.65
2022-11-25T18:30:06.691Z,2.01
2022-11-25T18:32:34.860Z,2.35
2022-11-25T18:35:02.851Z,2.47
2022-11-25T18:37:30.783Z,2.36
2022-11-25T18:39:59.032Z,2.22
2022-11-25T18:42:27.814Z,2.76
2022-11-25T18:44:56.330Z,2.35
2022-11-25T18:47:24.534Z,2.82
2022-11-25T18:49:56.149Z,2.34
2022-11-25T18:52:25.387Z,1.74
2022-11-25T18:54:53.363Z,2.13
2022-11-25T18:57:21.355Z,2.09
2022-11-25T19:00:10.194Z,1.99
2022-11-25T19:02:37.587Z,1.45
2022-11-25T19:05:27.012Z,1.22
2022-11-25T19:07:56.021Z,1.90
2022-11-25T19:10:27.981Z,1.48
2022-11-25T19:12:58.932Z,1.47
2022-11-25T19:15:27.373Z,2.22
2022-11-25T19:18:00.707Z,1.88
2022-11-25T19:20:30.417Z,1.77
2022-11-25T19:23:12.331Z,1.88
2022-11-25T19:25:40.592Z,1.79
2022-11-25T19:28:13.141Z,1.82
2022-11-25T19:30:41.322Z,2.14
2022-11-25T19:33:16.172Z,2.44
2022-11-25T19:35:44.433Z,1.99
2022-11-25T19:38:19.800Z,2.52
2022-11-25T19:40:49.494Z,2.88
2022-11-25T19:43:17.402Z,2.80
2022-11-25T19:45:45.985Z,2.92
2022-11-25T19:48:19.011Z,3.23
2022-11-25T19:50:49.391Z,2.92
2022-11-25T19:53:19.881Z,3.31
2022-11-25T19:55:48.351Z,2.84
2022-11-25T19:58:16.277Z,2.70
2022-11-25T20:00:46.079Z,3.00
2022-11-25T20:03:19.601Z,3.34
2022-11-25T20:05:49.082Z,2.87
2022-11-25T20:08:20.080Z,2.72
2022-11-25T20:10:48.461Z,3.15
2022-11-25T20:13:16.482Z,3.69
2022-11-25T20:15:45.382Z,2.46
2022-11-25T20:18:18.675Z,2.63
2022-11-25T20:20:49.431Z,3.04
2022-11-25T20:23:46.500Z,2.92
2022-11-25T20:26:36.094Z,3.11
2022-11-25T20:29:12.514Z,3.38
2022-11-25T20:31:40.710Z,3.22
2022-11-25T20:34:08.480Z,3.09
2022-11-25T20:36:36.338Z,2.90
2022-11-25T20:39:04.611Z,3.00
2022-11-25T20:41:33.532Z,3.12
2022-11-25T20:44:01.604Z,3.13
2022-11-25T20:46:30.329Z,3.16
2022-11-25T20:49:00.889Z,3.56
2022-11-25T20:51:29.410Z,3.87
2022-11-25T20:54:01.194Z,4.01
2022-11-25T20:56:30.274Z,2.58
2022-11-25T20:58:58.195Z,2.78
2022-11-25T21:01:26.062Z,2.73
2022-11-25T21:03:54.391Z,3.13
2022-11-25T21:06:27.744Z,3.19
2022-11-25T21:08:58.562Z,2.71
2022-11-25T21:11:28.117Z,3.10
2022-11-25T21:13:56.386Z,2.84
2022-11-25T21:16:25.818Z,2.44
2022-11-25T21:18:53.765Z,2.87
2022-11-25T21:21:30.422Z,2.56
2022-11-25T21:23:58.532Z,2.27
2022-11-25T21:26:27.051Z,3.20
2022-11-25T21:28:55.305Z,2.71
2022-11-25T21:31:24.956Z,2.66
2022-11-25T21:34:00.760Z,1.96
2022-11-25T21:36:30.031Z,1.73
2022-11-25T21:39:07.420Z,1.95
2022-11-25T21:41:35.683Z,1.49
2022-11-25T21:44:05.149Z,1.88
2022-11-25T21:46:33.127Z,1.96
2022-11-25T21:49:01.107Z,2.12
2022-11-25T21:51:29.354Z,1.77
2022-11-25T21:53:57.290Z,2.16
2022-11-25T21:56:34.635Z,2.45
2022-11-25T21:59:05.450Z,2.00
2022-11-25T22:01:33.535Z,2.24
2022-11-25T22:04:01.710Z,2.43
2022-11-25T22:06:32.073Z,2.21
2022-11-25T22:08:59.916Z,2.79
2022-11-25T22:11:33.710Z,2.43
2022-11-25T22:14:04.361Z,2.15
2022-11-25T22:16:34.608Z,1.91
2022-11-25T22:19:02.720Z,2.31
2022-11-25T22:21:30.770Z,2.56
2022-11-25T22:23:59.068Z,2.30
2022-11-25T22:26:34.555Z,1.94
2022-11-25T22:29:02.791Z,2.25
2022-11-25T22:31:30.613Z,2.46
2022-11-25T22:33:58.582Z,2.21
2022-11-25T22:36:36.793Z,2.23
2022-11-25T22:39:17.341Z,2.68
2022-11-25T22:41:52.646Z,3.17
2022-11-25T22:44:43.491Z,2.53
2022-11-25T22:47:36.673Z,2.31
2022-11-25T22:50:07.989Z,2.85
2022-11-25T22:52:36.549Z,2.49
2022-11-25T22:55:17.155Z,3.01
2022-11-25T22:57:45.647Z,3.27
2022-11-25T23:00:21.992Z,3.11
2022-11-25T23:02:51.195Z,2.88
2022-11-25T23:05:33.495Z,2.87
2022-11-25T23:08:19.811Z,2.88
2022-11-25T23:10:48.650Z,2.84
2022-11-25T23:13:18.741Z,3.04
2022-11-25T23:15:55.012Z,3.16
2022-11-25T23:18:37.922Z,3.17
2022-11-25T23:21:10.282Z,3.08
2022-11-25T23:23:38.420Z,3.44
2022-11-25T23:26:06.811Z,3.32
2022-11-25T23:28:34.757Z,3.07
2022-11-25T23:31:03.175Z,2.93
2022-11-25T23:33:43.660Z,2.76
2022-11-25T23:36:34.151Z,3.52
2022-11-25T23:39:03.781Z,3.45
2022-11-25T23:41:33.662Z,3.23
2022-11-25T23:44:26.271Z,2.79
2022-11-25T23:46:57.922Z,2.94
2022-11-25T23:49:33.273Z,2.88
2022-11-25T23:52:07.567Z,3.08
2022-11-25T23:54:42.671Z,2.73
2022-11-25T23:57:22.369Z,3.17
2022-11-25T23:59:50.919Z,3.06
